Time;durP1;ratioP1;P1;durP2;ratioP2;P2;SDS_P1;SDS_P2;PMS_P1;PMS_P2;Temp;Humidity;BMP_temperature;BMP_pressure;BME280_temperature;BME280_humidity;BME280_pressure;Samples;Min_cycle;Max_cycle;Signal;HPM_P1;HPM_P2
2022/04/03 00:02:03;;;;;;;40.33;20.80;;;;;;;;;;5032613;28;20041;-67
2022/04/03 00:04:30;;;;;;;33.85;19.58;;;;;;;;;;5032440;28;20080;-67
2022/04/03 00:06:59;;;;;;;55.38;26.23;;;;;;;;;;5032253;28;20045;-67
2022/04/03 00:09:26;;;;;;;29.88;18.05;;;;;;;;;;5032248;28;20056;-67
2022/04/03 00:11:52;;;;;;;31.33;17.30;;;;;;;;;;5032204;28;20107;-67
2022/04/03 00:14:19;;;;;;;25.23;17.02;;;;;;;;;;5031998;28;20488;-67
2022/04/03 00:16:46;;;;;;;27.48;16.00;;;;;;;;;;5032478;28;20061;-67
2022/04/03 00:19:12;;;;;;;25.85;18.10;;;;;;;;;;5031971;28;20492;-67
2022/04/03 00:21:39;;;;;;;27.40;17.25;;;;;;;;;;5031583;28;20056;-67
2022/04/03 00:24:06;;;;;;;27.30;17.25;;;;;;;;;;5031822;28;20045;-67
2022/04/03 00:26:33;;;;;;;33.00;18.52;;;;;;;;;;5031806;28;20049;-67
2022/04/03 00:28:59;;;;;;;24.92;16.40;;;;;;;;;;5032418;28;20053;-67
2022/04/03 00:31:26;;;;;;;30.77;19.40;;;;;;;;;;5031934;28;20056;-67
2022/04/03 00:33:53;;;;;;;28.27;17.77;;;;;;;;;;5031734;28;20103;-67
2022/04/03 00:36:19;;;;;;;28.98;18.55;;;;;;;;;;5032013;28;20053;-67
2022/04/03 00:38:46;;;;;;;30.45;18.45;;;;;;;;;;5031712;28;20053;-67
2022/04/03 00:41:14;;;;;;;27.08;18.30;;;;;;;;;;5031455;28;20375;-67
2022/04/03 00:43:40;;;;;;;26.98;17.33;;;;;;;;;;5030698;28;20056;-67
2022/04/03 00:46:07;;;;;;;29.92;17.70;;;;;;;;;;5031737;28;20045;-67
2022/04/03 00:48:33;;;;;;;27.17;17.73;;;;;;;;;;5030482;28;20056;-67
2022/04/03 00:51:00;;;;;;;28.67;18.10;;;;;;;;;;5031371;28;20049;-67
2022/04/03 00:53:27;;;;;;;29.83;18.85;;;;;;;;;;5031703;28;20050;-67
2022/04/03 00:55:53;;;;;;;30.17;19.90;;;;;;;;;;5031525;28;20061;-67
2022/04/03 00:58:21;;;;;;;33.40;19.40;;;;;;;;;;5030456;28;20045;-67
2022/04/03 01:00:48;;;;;;;30.25;18.33;;;;;;;;;;5030547;28;20057;-67
2022/04/03 01:03:14;;;;;;;27.77;17.40;;;;;;;;;;5031652;28;20455;-67
2022/04/03 01:05:41;;;;;;;27.05;18.15;;;;;;;;;;5031379;28;20050;-67
2022/04/03 01:08:09;;;;;;;29.65;18.70;;;;;;;;;;5031325;28;20053;-67
2022/04/03 01:10:36;;;;;;;28.20;17.92;;;;;;;;;;5031202;28;20136;-67
2022/04/03 01:13:02;;;;;;;31.55;17.50;;;;;;;;;;5031237;28;20046;-67
2022/04/03 01:15:29;;;;;;;26.77;17.48;;;;;;;;;;5031353;28;20050;-67
2022/04/03 01:17:56;;;;;;;28.33;18.25;;;;;;;;;;5031516;28;20504;-67
2022/04/03 01:20:22;;;;;;;27.73;18.55;;;;;;;;;;5031437;28;20056;-67
2022/04/03 01:22:49;;;;;;;32.20;18.85;;;;;;;;;;5031082;28;20050;-67
2022/04/03 01:25:16;;;;;;;27.95;17.92;;;;;;;;;;5031576;28;20111;-67
2022/04/03 01:27:42;;;;;;;28.23;18.40;;;;;;;;;;5031203;28;20060;-67
2022/04/03 01:30:12;;;;;;;31.77;19.45;;;;;;;;;;5031394;28;20566;-67
2022/04/03 01:32:39;;;;;;;30.17;18.65;;;;;;;;;;5030924;28;20163;-67
2022/04/03 01:35:06;;;;;;;26.52;17.42;;;;;;;;;;5034590;28;20045;-67
2022/04/03 01:37:33;;;;;;;27.48;18.60;;;;;;;;;;5034972;28;20053;-67
2022/04/03 01:40:00;;;;;;;27.75;17.48;;;;;;;;;;5035046;28;20091;-67
2022/04/03 01:42:26;;;;;;;29.88;17.70;;;;;;;;;;5034934;28;20103;-67
2022/04/03 01:44:53;;;;;;;34.75;19.80;;;;;;;;;;5035532;28;20061;-67
2022/04/03 01:47:20;;;;;;;29.60;20.17;;;;;;;;;;5034760;28;20104;-67
2022/04/03 01:49:46;;;;;;;31.35;19.17;;;;;;;;;;5033616;28;20055;-67
2022/04/03 01:52:13;;;;;;;30.85;19.17;;;;;;;;;;5034475;28;20076;-67
2022/04/03 01:54:40;;;;;;;27.65;19.65;;;;;;;;;;5034837;28;20059;-67
2022/04/03 01:57:07;;;;;;;28.38;18.45;;;;;;;;;;5034995;28;20064;-67
2022/04/03 01:59:34;;;;;;;32.67;19.83;;;;;;;;;;5034859;28;20053;-67
2022/04/03 02:02:00;;;;;;;31.85;20.08;;;;;;;;;;5034474;28;20175;-67
2022/04/03 02:04:28;;;;;;;28.90;17.38;;;;;;;;;;5034820;28;20049;-67
2022/04/03 02:06:54;;;;;;;27.80;18.33;;;;;;;;;;5034932;28;20470;-67
2022/04/03 02:09:21;;;;;;;25.58;17.55;;;;;;;;;;5034567;28;20124;-67
2022/04/03 02:11:48;;;;;;;25.25;16.52;;;;;;;;;;5034373;28;20045;-67
2022/04/03 02:14:14;;;;;;;26.52;16.52;;;;;;;;;;5034363;28;20053;-67
2022/04/03 02:16:41;;;;;;;24.73;16.58;;;;;;;;;;5034325;28;20053;-67
2022/04/03 02:19:07;;;;;;;25.35;16.25;;;;;;;;;;5034079;28;20060;-67
2022/04/03 02:21:34;;;;;;;29.35;19.15;;;;;;;;;;5034142;28;20042;-67
2022/04/03 02:24:00;;;;;;;25.85;17.30;;;;;;;;;;5034028;28;20091;-67
2022/04/03 02:26:27;;;;;;;24.92;16.85;;;;;;;;;;5034225;28;20053;-67
2022/04/03 02:28:54;;;;;;;26.48;17.63;;;;;;;;;;5033950;28;20122;-67
2022/04/03 02:31:20;;;;;;;28.63;16.65;;;;;;;;;;5033845;28;20049;-67
2022/04/03 02:33:47;;;;;;;29.50;17.25;;;;;;;;;;5033867;28;20125;-67
2022/04/03 02:36:14;;;;;;;23.48;17.00;;;;;;;;;;5034194;28;20045;-67
2022/04/03 02:38:40;;;;;;;26.40;15.25;;;;;;;;;;5034001;28;20467;-67
2022/04/03 02:41:07;;;;;;;26.08;16.77;;;;;;;;;;5033800;28;20045;-67
2022/04/03 02:43:34;;;;;;;28.88;17.02;;;;;;;;;;5033872;28;20459;-67
2022/04/03 02:46:00;;;;;;;26.80;16.38;;;;;;;;;;5033661;28;20075;-67
2022/04/03 02:48:27;;;;;;;27.40;16.95;;;;;;;;;;5033548;28;20076;-67
2022/04/03 02:50:54;;;;;;;30.52;17.40;;;;;;;;;;5033836;28;20049;-67
2022/04/03 02:53:20;;;;;;;22.13;15.23;;;;;;;;;;5033510;28;20056;-67
2022/04/03 02:55:47;;;;;;;26.27;15.57;;;;;;;;;;5033704;28;20060;-67
2022/04/03 02:58:13;;;;;;;26.73;16.15;;;;;;;;;;5033494;28;20061;-67
2022/04/03 03:00:41;;;;;;;27.75;16.75;;;;;;;;;;5050749;28;20045;-67
2022/04/03 03:03:09;;;;;;;25.13;15.98;;;;;;;;;;5053325;28;20388;-67
2022/04/03 03:05:35;;;;;;;24.05;16.73;;;;;;;;;;5038556;28;20144;-67
2022/04/03 03:08:02;;;;;;;24.30;15.27;;;;;;;;;;5033359;28;20049;-67
2022/04/03 03:10:29;;;;;;;27.27;16.85;;;;;;;;;;5033203;28;20111;-67
2022/04/03 03:12:56;;;;;;;19.83;14.68;;;;;;;;;;5037964;28;20095;-67
2022/04/03 03:15:23;;;;;;;23.88;15.52;;;;;;;;;;5052968;28;20048;-67
2022/04/03 03:17:49;;;;;;;22.95;16.00;;;;;;;;;;5053325;28;20056;-67
2022/04/03 03:20:19;;;;;;;23.10;15.55;;;;;;;;;;5053221;28;20135;-67
2022/04/03 03:22:46;;;;;;;24.70;17.38;;;;;;;;;;5052852;28;20045;-67
2022/04/03 03:25:13;;;;;;;26.75;17.45;;;;;;;;;;5052998;28;20055;-67
2022/04/03 03:27:40;;;;;;;26.25;18.23;;;;;;;;;;5041425;28;20053;-67
2022/04/03 03:30:08;;;;;;;24.27;16.30;;;;;;;;;;5032803;28;20057;-67
2022/04/03 03:32:35;;;;;;;24.67;15.73;;;;;;;;;;5032965;28;20067;-67
2022/04/03 03:35:02;;;;;;;21.05;16.25;;;;;;;;;;5032993;28;20045;-67
2022/04/03 03:37:28;;;;;;;24.38;15.40;;;;;;;;;;5032732;28;20057;-67
2022/04/03 03:39:55;;;;;;;23.05;16.20;;;;;;;;;;5032824;28;20053;-67
2022/04/03 03:42:22;;;;;;;23.00;15.00;;;;;;;;;;5032541;28;20049;-67
2022/04/03 03:44:49;;;;;;;23.70;14.30;;;;;;;;;;5032839;28;20107;-67
2022/04/03 03:47:15;;;;;;;23.27;14.38;;;;;;;;;;5032748;28;20053;-67
2022/04/03 03:49:42;;;;;;;23.88;15.50;;;;;;;;;;5032730;28;20053;-67
2022/04/03 03:52:09;;;;;;;20.42;15.05;;;;;;;;;;5032280;28;20049;-67
2022/04/03 03:54:36;;;;;;;21.75;13.48;;;;;;;;;;5032704;28;20049;-67
2022/04/03 03:57:03;;;;;;;27.02;15.75;;;;;;;;;;5031676;28;20049;-67
2022/04/03 03:59:30;;;;;;;25.70;15.48;;;;;;;;;;5032772;28;20053;-67
2022/04/03 04:01:57;;;;;;;23.23;14.52;;;;;;;;;;5032127;28;20052;-67
2022/04/03 04:04:23;;;;;;;21.60;15.15;;;;;;;;;;5032383;28;20056;-67
2022/04/03 04:06:50;;;;;;;23.40;14.30;;;;;;;;;;5031904;28;20084;-67
2022/04/03 04:09:16;;;;;;;21.25;13.77;;;;;;;;;;5032294;28;20112;-67
2022/04/03 04:11:43;;;;;;;19.80;13.13;;;;;;;;;;5031867;28;20049;-67
2022/04/03 04:14:10;;;;;;;18.20;12.98;;;;;;;;;;5032677;28;20421;-67
2022/04/03 04:16:37;;;;;;;21.35;13.82;;;;;;;;;;5031489;28;20050;-67
2022/04/03 04:19:06;;;;;;;20.02;13.40;;;;;;;;;;5032157;28;20096;-67
2022/04/03 04:21:33;;;;;;;20.88;14.45;;;;;;;;;;5032236;28;20401;-67
2022/04/03 04:23:59;;;;;;;23.27;14.27;;;;;;;;;;5038838;28;20102;-67
2022/04/03 04:26:26;;;;;;;21.77;14.32;;;;;;;;;;5051845;28;20397;-67
2022/04/03 04:28:53;;;;;;;19.80;13.98;;;;;;;;;;5012286;28;20081;-67
2022/04/03 04:31:19;;;;;;;18.23;13.25;;;;;;;;;;5012594;28;20061;-67
2022/04/03 04:33:46;;;;;;;20.33;14.70;;;;;;;;;;5011908;28;20489;-67
2022/04/03 04:36:13;;;;;;;20.45;13.43;;;;;;;;;;5044354;28;20126;-67
2022/04/03 04:38:39;;;;;;;21.55;13.45;;;;;;;;;;5051616;28;20064;-67
2022/04/03 04:41:06;;;;;;;20.92;13.43;;;;;;;;;;5049959;28;20045;-67
2022/04/03 04:43:33;;;;;;;20.02;13.82;;;;;;;;;;5031910;28;20042;-67
2022/04/03 04:45:59;;;;;;;20.42;14.40;;;;;;;;;;5032012;28;20053;-67
2022/04/03 04:48:26;;;;;;;22.40;13.98;;;;;;;;;;5031658;28;20057;-66
2022/04/03 04:50:53;;;;;;;19.80;13.13;;;;;;;;;;5031639;28;20049;-66
2022/04/03 04:53:21;;;;;;;20.80;13.30;;;;;;;;;;5031530;28;20045;-66
2022/04/03 04:55:47;;;;;;;19.60;12.93;;;;;;;;;;5032252;28;20064;-66
2022/04/03 04:58:14;;;;;;;21.63;13.50;;;;;;;;;;5031530;28;20049;-66
2022/04/03 05:00:41;;;;;;;20.88;13.45;;;;;;;;;;5031918;28;20389;-66
2022/04/03 05:03:08;;;;;;;22.27;13.35;;;;;;;;;;5031587;28;20073;-66
2022/04/03 05:05:35;;;;;;;20.80;13.82;;;;;;;;;;5031516;28;20053;-66
2022/04/03 05:08:02;;;;;;;20.65;13.63;;;;;;;;;;5030687;28;20057;-66
2022/04/03 05:10:30;;;;;;;22.23;14.27;;;;;;;;;;5035635;28;20049;-66
2022/04/03 05:12:56;;;;;;;19.58;13.55;;;;;;;;;;5035501;28;20103;-66
2022/04/03 05:15:23;;;;;;;17.92;13.23;;;;;;;;;;5035650;28;20107;-66
2022/04/03 05:17:49;;;;;;;19.30;13.85;;;;;;;;;;5034699;28;20104;-66
2022/04/03 05:20:16;;;;;;;20.27;14.20;;;;;;;;;;5034460;28;20103;-66
2022/04/03 05:22:43;;;;;;;18.50;13.02;;;;;;;;;;5035607;28;20053;-66
2022/04/03 05:25:13;;;;;;;17.73;12.73;;;;;;;;;;5035598;28;20049;-66
2022/04/03 05:27:40;;;;;;;18.88;12.15;;;;;;;;;;5034472;28;20060;-66
2022/04/03 05:30:08;;;;;;;19.40;13.27;;;;;;;;;;5035495;28;20397;-66
2022/04/03 05:32:36;;;;;;;19.30;13.27;;;;;;;;;;5034950;28;20046;-66
2022/04/03 05:35:05;;;;;;;18.25;12.73;;;;;;;;;;5035025;28;20457;-66
2022/04/03 05:37:39;;;;;;;20.13;13.38;;;;;;;;;;5035419;28;20065;-66
2022/04/03 05:40:07;;;;;;;17.30;12.43;;;;;;;;;;5035031;28;20566;-65
2022/04/03 05:42:35;;;;;;;18.05;11.80;;;;;;;;;;5035080;28;20046;-65
2022/04/03 05:45:04;;;;;;;18.88;12.88;;;;;;;;;;5035407;28;20064;-65
2022/04/03 05:47:31;;;;;;;18.10;13.10;;;;;;;;;;5034191;28;20466;-65
2022/04/03 05:49:58;;;;;;;17.58;12.00;;;;;;;;;;5034618;28;20065;-66
2022/04/03 05:52:24;;;;;;;17.60;11.90;;;;;;;;;;5032725;28;20104;-66
2022/04/03 05:54:51;;;;;;;16.95;12.05;;;;;;;;;;5032839;28;20053;-66
2022/04/03 05:57:18;;;;;;;16.58;11.93;;;;;;;;;;5032360;28;20057;-66
2022/04/03 05:59:44;;;;;;;16.63;11.40;;;;;;;;;;5032386;28;20049;-67
2022/04/03 06:02:12;;;;;;;18.48;12.00;;;;;;;;;;5031861;28;20045;-66
2022/04/03 06:04:39;;;;;;;16.70;12.07;;;;;;;;;;5032207;28;20136;-67
2022/04/03 06:07:07;;;;;;;18.55;11.85;;;;;;;;;;5032405;28;20057;-67
2022/04/03 06:09:34;;;;;;;15.45;11.48;;;;;;;;;;5030971;28;20115;-66
2022/04/03 06:12:00;;;;;;;14.48;10.43;;;;;;;;;;5031746;28;20049;-66
2022/04/03 06:14:27;;;;;;;15.98;10.90;;;;;;;;;;5032025;28;20046;-66
2022/04/03 06:16:54;;;;;;;12.68;8.85;;;;;;;;;;5031353;28;20099;-66
2022/04/03 06:19:20;;;;;;;16.52;10.32;;;;;;;;;;5031626;28;20056;-66
2022/04/03 06:21:47;;;;;;;13.88;10.02;;;;;;;;;;5032117;28;20045;-67
2022/04/03 06:24:13;;;;;;;14.35;10.00;;;;;;;;;;5031446;28;20055;-66
2022/04/03 06:26:40;;;;;;;14.15;10.30;;;;;;;;;;5031786;28;20042;-67
2022/04/03 06:29:07;;;;;;;13.93;10.68;;;;;;;;;;5031180;28;20088;-67
2022/04/03 06:31:33;;;;;;;15.55;9.38;;;;;;;;;;5031988;28;20475;-67
2022/04/03 06:34:02;;;;;;;18.52;10.55;;;;;;;;;;5031839;28;20106;-67
2022/04/03 06:36:28;;;;;;;15.10;9.55;;;;;;;;;;5031975;28;20046;-67
2022/04/03 06:38:55;;;;;;;12.80;8.95;;;;;;;;;;5031975;28;20053;-66
2022/04/03 06:41:23;;;;;;;14.18;9.80;;;;;;;;;;5031919;28;20046;-67
2022/04/03 06:43:49;;;;;;;12.90;9.43;;;;;;;;;;5030003;28;20093;-67
2022/04/03 06:46:16;;;;;;;14.27;10.07;;;;;;;;;;5031874;28;20049;-66
2022/04/03 06:48:43;;;;;;;13.38;9.50;;;;;;;;;;5031471;28;20049;-66
2022/04/03 06:51:10;;;;;;;16.45;10.50;;;;;;;;;;5031748;28;20057;-66
2022/04/03 06:53:36;;;;;;;13.85;9.88;;;;;;;;;;5018262;28;20054;-66
2022/04/03 06:56:03;;;;;;;12.13;9.48;;;;;;;;;;5022300;28;20050;-65
2022/04/03 06:58:30;;;;;;;13.77;9.75;;;;;;;;;;5012002;28;20098;-66
2022/04/03 07:00:57;;;;;;;14.32;10.25;;;;;;;;;;5046136;28;20077;-63
2022/04/03 07:03:24;;;;;;;17.13;8.68;;;;;;;;;;5043895;28;20096;-63
2022/04/03 07:05:50;;;;;;;13.40;9.05;;;;;;;;;;5040793;28;20075;-63
2022/04/03 07:08:20;;;;;;;11.35;8.30;;;;;;;;;;5043223;28;20051;-63
2022/04/03 07:10:47;;;;;;;11.25;8.50;;;;;;;;;;5038025;28;20076;-62
2022/04/03 07:13:14;;;;;;;14.43;9.25;;;;;;;;;;5043405;28;20111;-62
2022/04/03 07:15:40;;;;;;;11.45;8.52;;;;;;;;;;5042049;28;20379;-63
2022/04/03 07:18:10;;;;;;;13.35;9.25;;;;;;;;;;5042989;28;20056;-65
2022/04/03 07:20:37;;;;;;;14.63;8.70;;;;;;;;;;5040493;28;20424;-65
2022/04/03 07:23:03;;;;;;;11.77;8.40;;;;;;;;;;5042200;28;20053;-63
2022/04/03 07:25:30;;;;;;;10.45;8.13;;;;;;;;;;5042658;28;20427;-65
2022/04/03 07:27:57;;;;;;;12.15;8.15;;;;;;;;;;5041679;28;20419;-65
2022/04/03 07:30:23;;;;;;;12.23;8.52;;;;;;;;;;5041349;28;20417;-66
2022/04/03 07:32:50;;;;;;;10.63;8.63;;;;;;;;;;5037378;28;20408;-66
2022/04/03 07:35:17;;;;;;;12.07;8.27;;;;;;;;;;5042313;28;20557;-66
2022/04/03 07:37:44;;;;;;;11.98;8.52;;;;;;;;;;5039048;28;20451;-65
2022/04/03 07:40:11;;;;;;;10.60;7.75;;;;;;;;;;5036341;28;20053;-65
2022/04/03 07:42:39;;;;;;;10.82;8.27;;;;;;;;;;5040912;28;20053;-65
2022/04/03 07:45:06;;;;;;;11.98;8.32;;;;;;;;;;5042338;28;20053;-66
2022/04/03 07:47:33;;;;;;;12.05;8.60;;;;;;;;;;5041047;28;20053;-65
2022/04/03 07:50:03;;;;;;;10.05;7.85;;;;;;;;;;5041132;28;20493;-66
2022/04/03 07:52:32;;;;;;;12.27;6.65;;;;;;;;;;5036297;28;20057;-65
2022/04/03 07:55:00;;;;;;;10.77;7.28;;;;;;;;;;5040946;28;20080;-66
2022/04/03 07:57:27;;;;;;;8.70;6.05;;;;;;;;;;5044219;28;20117;-66
2022/04/03 07:59:53;;;;;;;8.30;5.30;;;;;;;;;;5042468;28;20045;-65
2022/04/03 08:02:20;;;;;;;6.03;5.05;;;;;;;;;;5043361;28;20126;-65
2022/04/03 08:04:47;;;;;;;6.50;5.63;;;;;;;;;;5041120;28;20064;-65
2022/04/03 08:07:13;;;;;;;6.90;5.47;;;;;;;;;;5042879;28;20060;-65
2022/04/03 08:09:41;;;;;;;5.55;4.95;;;;;;;;;;5039551;28;20114;-65
2022/04/03 08:12:08;;;;;;;8.05;5.05;;;;;;;;;;5034146;28;20053;-65
2022/04/03 08:14:35;;;;;;;6.97;5.80;;;;;;;;;;5032568;28;20053;-65
2022/04/03 08:17:01;;;;;;;6.18;5.47;;;;;;;;;;5033596;28;20049;-65
2022/04/03 08:19:28;;;;;;;6.93;5.25;;;;;;;;;;5036747;28;20052;-65
2022/04/03 08:21:55;;;;;;;8.50;5.40;;;;;;;;;;5039656;28;20049;-65
2022/04/03 08:24:22;;;;;;;8.25;5.13;;;;;;;;;;5036124;28;20046;-66
2022/04/03 08:26:48;;;;;;;6.28;4.25;;;;;;;;;;5033621;28;20049;-65
2022/04/03 08:29:15;;;;;;;8.43;5.00;;;;;;;;;;5037219;28;20487;-66
2022/04/03 08:31:42;;;;;;;6.85;5.25;;;;;;;;;;5039905;28;20049;-65
2022/04/03 08:34:08;;;;;;;6.20;4.65;;;;;;;;;;5037519;28;20053;-65
2022/04/03 08:36:55;;;;;;;5.30;4.22;;;;;;;;;;5035544;28;20527;-65
2022/04/03 08:39:22;;;;;;;6.00;5.05;;;;;;;;;;5040938;28;20049;-65
2022/04/03 08:41:48;;;;;;;5.72;4.63;;;;;;;;;;5038220;28;20504;-67
2022/04/03 08:44:15;;;;;;;5.63;4.35;;;;;;;;;;5041099;28;20090;-65
2022/04/03 08:46:45;;;;;;;6.20;4.18;;;;;;;;;;5039029;28;20357;-66
2022/04/03 08:49:12;;;;;;;5.57;3.92;;;;;;;;;;5037800;28;20368;-65
2022/04/03 08:51:39;;;;;;;7.72;4.97;;;;;;;;;;5040510;28;20048;-65
2022/04/03 08:54:07;;;;;;;9.35;4.85;;;;;;;;;;5037740;28;20098;-70
2022/04/03 08:56:37;;;;;;;6.85;4.80;;;;;;;;;;5020635;28;20049;-67
2022/04/03 08:59:03;;;;;;;7.18;5.38;;;;;;;;;;5037334;28;20504;-66
2022/04/03 09:01:30;;;;;;;8.77;5.20;;;;;;;;;;5041299;28;20522;-64
2022/04/03 09:03:57;;;;;;;6.50;5.65;;;;;;;;;;5038543;28;20042;-66
2022/04/03 09:06:23;;;;;;;7.70;5.45;;;;;;;;;;5041645;28;20049;-64
2022/04/03 09:08:50;;;;;;;9.00;6.05;;;;;;;;;;5038953;28;20128;-64
2022/04/03 09:11:18;;;;;;;9.13;6.55;;;;;;;;;;5039772;28;20122;-64
2022/04/03 09:13:45;;;;;;;8.32;5.10;;;;;;;;;;5038447;28;20401;-65
2022/04/03 09:16:12;;;;;;;8.20;6.22;;;;;;;;;;5037637;28;20057;-65
2022/04/03 09:18:51;;;;;;;9.13;7.40;;;;;;;;;;5041422;28;20050;-66
2022/04/03 09:21:20;;;;;;;7.30;6.25;;;;;;;;;;5039651;28;20620;-67
2022/04/03 09:24:07;;;;;;;10.85;6.05;;;;;;;;;;5040814;28;20045;-65
2022/04/03 09:26:34;;;;;;;6.32;4.95;;;;;;;;;;5031228;28;20053;-64
2022/04/03 09:29:21;;;;;;;7.53;5.60;;;;;;;;;;5037602;28;20045;-66
2022/04/03 09:31:47;;;;;;;8.05;5.82;;;;;;;;;;5039143;28;20416;-65
2022/04/03 09:34:17;;;;;;;7.88;4.68;;;;;;;;;;5025136;28;20057;-66
2022/04/03 09:36:57;;;;;;;9.23;5.38;;;;;;;;;;5035919;28;20044;-72
2022/04/03 09:39:26;;;;;;;7.72;5.07;;;;;;;;;;5039144;28;20057;-76
2022/04/03 09:42:04;;;;;;;8.88;5.93;;;;;;;;;;5040908;28;20053;-71
2022/04/03 09:44:40;;;;;;;12.43;5.68;;;;;;;;;;5039994;28;20095;-70
2022/04/03 09:47:22;;;;;;;7.72;5.20;;;;;;;;;;5037119;28;20053;-69
2022/04/03 09:50:05;;;;;;;11.25;5.85;;;;;;;;;;5030697;28;20053;-70
2022/04/03 09:52:33;;;;;;;7.78;6.55;;;;;;;;;;5037270;28;20562;-71
2022/04/03 09:55:00;;;;;;;7.70;5.00;;;;;;;;;;5034693;28;20041;-70
2022/04/03 09:57:27;;;;;;;6.72;5.30;;;;;;;;;;5041333;28;20458;-69
2022/04/03 09:59:54;;;;;;;5.85;4.80;;;;;;;;;;5040467;28;20045;-70
2022/04/03 10:02:21;;;;;;;5.80;4.80;;;;;;;;;;5037659;28;20045;-69
2022/04/03 10:04:48;;;;;;;8.57;6.07;;;;;;;;;;5043174;28;20041;-70
2022/04/03 10:07:15;;;;;;;7.53;5.15;;;;;;;;;;5043176;28;20053;-70
2022/04/03 10:09:48;;;;;;;7.32;4.85;;;;;;;;;;5043064;28;20413;-70
2022/04/03 10:12:22;;;;;;;7.13;4.85;;;;;;;;;;5044224;28;20053;-72
2022/04/03 10:14:50;;;;;;;6.07;4.10;;;;;;;;;;5044575;28;20057;-69
2022/04/03 10:17:19;;;;;;;6.10;4.10;;;;;;;;;;5042024;28;20041;-72
2022/04/03 10:19:46;;;;;;;5.10;3.95;;;;;;;;;;5038133;28;20531;-68
2022/04/03 10:22:18;;;;;;;5.25;4.25;;;;;;;;;;5042952;28;20052;-68
2022/04/03 10:24:48;;;;;;;6.22;3.45;;;;;;;;;;5025827;28;20053;-70
2022/04/03 10:27:20;;;;;;;5.28;3.83;;;;;;;;;;5039876;28;20186;-68
2022/04/03 10:29:47;;;;;;;4.57;3.40;;;;;;;;;;5041723;28;20181;-69
2022/04/03 10:32:22;;;;;;;6.43;3.80;;;;;;;;;;5041092;28;20095;-63
2022/04/03 10:34:52;;;;;;;5.82;4.15;;;;;;;;;;5048989;23;20037;-68
2022/04/03 10:37:26;;;;;;;4.30;3.20;;;;;;;;;;5023749;28;20054;-69
2022/04/03 10:39:57;;;;;;;5.35;3.50;;;;;;;;;;5021323;28;20504;-71
2022/04/03 10:42:27;;;;;;;7.80;3.30;;;;;;;;;;5021237;28;20954;-67
2022/04/03 10:45:12;;;;;;;5.15;3.85;;;;;;;;;;5017653;28;20492;-66
2022/04/03 10:47:40;;;;;;;4.18;3.17;;;;;;;;;;5022892;28;20107;-67
2022/04/03 10:50:08;;;;;;;3.88;3.35;;;;;;;;;;4988970;28;20041;-66
2022/04/03 10:52:38;;;;;;;2.95;2.53;;;;;;;;;;5018830;28;20053;-66
2022/04/03 10:55:28;;;;;;;4.00;3.33;;;;;;;;;;5021193;28;20041;-66
2022/04/03 10:58:03;;;;;;;3.70;2.20;;;;;;;;;;5024110;28;20046;-65
2022/04/03 11:00:32;;;;;;;5.43;2.97;;;;;;;;;;5001756;28;20076;-65
2022/04/03 11:03:14;;;;;;;4.18;2.80;;;;;;;;;;5019792;28;20042;-67
2022/04/03 11:05:43;;;;;;;5.75;2.80;;;;;;;;;;5022800;28;20412;-66
2022/04/03 11:08:12;;;;;;;3.97;3.40;;;;;;;;;;5018134;28;20535;-66
2022/04/03 11:10:48;;;;;;;3.53;2.67;;;;;;;;;;5020303;28;20068;-67
2022/04/03 11:13:16;;;;;;;3.13;2.70;;;;;;;;;;5021902;28;20073;-69
2022/04/03 11:15:44;;;;;;;3.65;2.75;;;;;;;;;;5001598;28;20550;-69
2022/04/03 11:18:26;;;;;;;5.45;2.92;;;;;;;;;;5020782;28;20045;-67
2022/04/03 11:21:13;;;;;;;3.88;2.90;;;;;;;;;;5018016;28;20053;-69
2022/04/03 11:24:01;;;;;;;3.45;3.03;;;;;;;;;;5017476;28;20108;-65
2022/04/03 11:26:29;;;;;;;3.45;2.53;;;;;;;;;;5020498;28;20397;-67
2022/04/03 11:29:03;;;;;;;6.85;3.10;;;;;;;;;;5010417;28;20514;-67
2022/04/03 11:31:30;;;;;;;4.00;2.85;;;;;;;;;;5018450;28;20062;-66
2022/04/03 11:33:58;;;;;;;4.47;2.80;;;;;;;;;;5002567;28;20049;-66
2022/04/03 11:36:31;;;;;;;3.30;3.00;;;;;;;;;;5018840;28;20585;-69
2022/04/03 11:39:00;;;;;;;3.03;2.72;;;;;;;;;;5037054;28;20046;-70
2022/04/03 11:41:34;;;;;;;3.22;2.20;;;;;;;;;;5016708;28;20056;-70
2022/04/03 11:44:11;;;;;;;2.67;2.40;;;;;;;;;;5002858;28;20050;-69
2022/04/03 11:46:50;;;;;;;4.72;2.88;;;;;;;;;;5002310;28;20050;-69
2022/04/03 11:49:21;;;;;;;4.25;2.95;;;;;;;;;;5003857;28;20489;-69
2022/04/03 11:51:53;;;;;;;2.88;2.60;;;;;;;;;;5000558;28;20046;-70
2022/04/03 11:54:20;;;;;;;3.80;3.00;;;;;;;;;;5000345;28;20108;-70
2022/04/03 11:56:46;;;;;;;6.10;2.67;;;;;;;;;;5023544;28;20061;-69
2022/04/03 11:59:16;;;;;;;4.15;2.22;;;;;;;;;;5017261;28;20054;-70
2022/04/03 12:01:50;;;;;;;4.00;2.63;;;;;;;;;;5016882;28;20509;-69
2022/04/03 12:04:18;;;;;;;3.60;2.47;;;;;;;;;;5020740;28;20049;-69
2022/04/03 12:06:47;;;;;;;2.38;2.15;;;;;;;;;;5019738;28;20484;-71
2022/04/03 12:09:19;;;;;;;3.65;2.63;;;;;;;;;;5022356;28;20051;-70
2022/04/03 12:11:49;;;;;;;3.08;2.75;;;;;;;;;;5016405;28;20050;-66
2022/04/03 12:14:32;;;;;;;5.32;3.20;;;;;;;;;;5019235;28;20072;-66
2022/04/03 12:17:00;;;;;;;5.07;2.80;;;;;;;;;;5019166;28;20492;-67
2022/04/03 12:19:28;;;;;;;3.53;2.40;;;;;;;;;;5023936;28;20061;-66
2022/04/03 12:21:56;;;;;;;4.13;2.60;;;;;;;;;;5023373;28;20056;-67
2022/04/03 12:24:28;;;;;;;3.47;2.58;;;;;;;;;;5024176;28;20052;-67
2022/04/03 12:27:00;;;;;;;3.75;2.55;;;;;;;;;;5021738;28;20045;-66
2022/04/03 12:29:29;;;;;;;3.53;2.85;;;;;;;;;;5020798;28;20412;-66
2022/04/03 12:31:58;;;;;;;3.83;2.70;;;;;;;;;;5020710;28;20120;-66
2022/04/03 12:34:25;;;;;;;3.72;2.45;;;;;;;;;;5017967;28;20053;-66
2022/04/03 12:36:53;;;;;;;2.65;2.28;;;;;;;;;;5016476;28;20054;-66
2022/04/03 12:39:44;;;;;;;5.18;2.65;;;;;;;;;;5003274;28;20050;-66
2022/04/03 12:42:21;;;;;;;7.00;2.95;;;;;;;;;;5023929;28;20496;-66
2022/04/03 12:44:57;;;;;;;3.90;2.65;;;;;;;;;;5024984;28;20073;-67
2022/04/03 12:47:28;;;;;;;5.70;2.95;;;;;;;;;;5017477;28;20046;-66
2022/04/03 12:50:06;;;;;;;4.55;2.50;;;;;;;;;;5017840;28;20041;-66
2022/04/03 12:52:39;;;;;;;3.33;2.58;;;;;;;;;;5018697;28;20153;-66
2022/04/03 12:55:08;;;;;;;3.60;2.78;;;;;;;;;;5017263;28;20092;-66
2022/04/03 13:00:20;;;;;;;2.20;2.00;;;;;;;;;;5015559;28;20041;-67
2022/04/03 13:02:50;;;;;;;3.72;2.30;;;;;;;;;;5016419;28;20497;-66
2022/04/03 13:05:17;;;;;;;3.78;2.40;;;;;;;;;;5017651;28;20052;-65
2022/04/03 13:07:44;;;;;;;3.88;2.13;;;;;;;;;;4999978;28;20045;-66
2022/04/03 13:10:17;;;;;;;2.70;2.30;;;;;;;;;;5017652;28;20085;-66
2022/04/03 13:12:48;;;;;;;4.80;2.58;;;;;;;;;;5016356;28;20053;-66
2022/04/03 13:15:16;;;;;;;3.40;2.53;;;;;;;;;;5000915;28;20041;-66
2022/04/03 13:17:44;;;;;;;4.47;2.55;;;;;;;;;;5016758;28;20099;-67
2022/04/03 13:20:11;;;;;;;3.05;2.58;;;;;;;;;;5004595;28;20053;-66
2022/04/03 13:22:37;;;;;;;2.30;2.10;;;;;;;;;;5019940;28;20050;-66
2022/04/03 13:25:05;;;;;;;4.07;2.78;;;;;;;;;;5017583;28;20046;-66
2022/04/03 13:27:31;;;;;;;3.45;2.20;;;;;;;;;;5016146;28;20424;-66
2022/04/03 13:29:59;;;;;;;3.35;2.90;;;;;;;;;;5020315;28;20057;-67
2022/04/03 13:32:25;;;;;;;3.08;2.13;;;;;;;;;;5020810;28;20543;-66
2022/04/03 13:34:52;;;;;;;3.13;2.40;;;;;;;;;;5019301;28;20046;-66
2022/04/03 13:37:19;;;;;;;4.22;2.67;;;;;;;;;;5022562;28;20045;-67
2022/04/03 13:39:45;;;;;;;3.58;2.80;;;;;;;;;;5020622;28;20053;-66
2022/04/03 13:42:13;;;;;;;2.60;2.33;;;;;;;;;;5021833;28;20045;-67
2022/04/03 13:44:40;;;;;;;3.20;2.90;;;;;;;;;;5020213;28;20046;-67
2022/04/03 13:47:07;;;;;;;2.38;2.17;;;;;;;;;;5019746;28;20132;-66
2022/04/03 13:49:33;;;;;;;2.50;2.15;;;;;;;;;;5020415;28;20046;-67
2022/04/03 13:52:00;;;;;;;3.35;2.55;;;;;;;;;;5020522;28;20053;-67
2022/04/03 13:54:28;;;;;;;2.55;2.35;;;;;;;;;;5021964;28;20050;-67
2022/04/03 13:56:55;;;;;;;3.33;2.63;;;;;;;;;;5020051;28;20054;-67
2022/04/03 13:59:22;;;;;;;5.63;2.60;;;;;;;;;;5024824;28;20049;-67
2022/04/03 14:01:48;;;;;;;3.67;3.05;;;;;;;;;;5019752;28;20567;-67
2022/04/03 14:04:17;;;;;;;4.57;2.60;;;;;;;;;;5023577;28;20056;-66
2022/04/03 14:06:44;;;;;;;4.28;2.80;;;;;;;;;;5026269;28;20053;-66
2022/04/03 14:09:11;;;;;;;4.40;2.53;;;;;;;;;;5030823;28;20057;-67
2022/04/03 14:11:37;;;;;;;4.20;3.33;;;;;;;;;;5021177;28;20057;-66
2022/04/03 14:14:04;;;;;;;4.90;2.58;;;;;;;;;;5012654;28;20053;-66
2022/04/03 14:16:32;;;;;;;3.33;2.65;;;;;;;;;;5011089;28;20054;-65
2022/04/03 14:19:00;;;;;;;4.72;2.72;;;;;;;;;;5011624;28;20088;-65
2022/04/03 14:21:34;;;;;;;4.63;3.33;;;;;;;;;;5010738;28;20465;-66
2022/04/03 14:24:00;;;;;;;5.13;3.10;;;;;;;;;;5012460;28;20100;-66
2022/04/03 14:26:27;;;;;;;4.93;3.67;;;;;;;;;;5022957;28;20084;-66
2022/04/03 14:28:54;;;;;;;5.60;3.28;;;;;;;;;;5032472;28;20075;-66
2022/04/03 14:31:21;;;;;;;4.82;3.28;;;;;;;;;;5030693;28;20557;-67
2022/04/03 14:33:47;;;;;;;4.22;3.13;;;;;;;;;;5031468;28;20049;-66
2022/04/03 14:36:16;;;;;;;4.60;3.22;;;;;;;;;;5030893;28;20080;-66
2022/04/03 14:38:43;;;;;;;6.18;3.55;;;;;;;;;;5031748;28;20053;-66
2022/04/03 14:41:11;;;;;;;4.07;2.60;;;;;;;;;;5013656;28;20050;-66